Time;durP1;ratioP1;P1;durP2;ratioP2;P2;SDS_P1;SDS_P2;PMS_P1;PMS_P2;Temp;Humidity;BMP_temperature;BMP_pressure;BME280_temperature;BME280_humidity;BME280_pressure;Samples;Min_cycle;Max_cycle;Signal;HPM_P1;HPM_P2
2022/07/17 00:01:16;;;;;;;;;1.75;1.75;;;;;26.50;37.61;101857.28;5034140;28;62055;-37
2022/07/17 00:03:41;;;;;;;;;0.25;0.25;;;;;26.50;37.80;101843.84;5026554;28;45336;-37
2022/07/17 00:06:06;;;;;;;;;2.00;2.00;;;;;26.49;37.50;101838.63;5031631;28;45506;-37
2022/07/17 00:08:32;;;;;;;;;1.00;1.00;;;;;26.50;38.08;101838.47;5028451;28;71093;-38
2022/07/17 00:10:59;;;;;;;;;2.00;1.00;;;;;26.50;37.81;101835.78;5019902;28;45418;-37
2022/07/17 00:13:25;;;;;;;;;2.50;1.25;;;;;26.51;37.85;101842.03;5032264;28;45486;-37
2022/07/17 00:15:50;;;;;;;;;1.25;1.00;;;;;26.50;37.91;101835.78;5032742;28;45595;-37
2022/07/17 00:18:16;;;;;;;;;2.25;1.75;;;;;26.49;37.61;101836.78;5030955;28;45303;-37
2022/07/17 00:20:43;;;;;;;;;3.00;2.00;;;;;26.50;37.75;101824.22;5025578;28;68817;-37
2022/07/17 00:23:08;;;;;;;;;1.50;1.50;;;;;26.51;37.77;101829.47;5038077;28;45362;-37
2022/07/17 00:25:34;;;;;;;;;2.00;1.00;;;;;26.51;37.95;101831.31;5032351;28;45455;-37
2022/07/17 00:27:59;;;;;;;;;3.00;2.25;;;;;26.50;37.99;101834.94;5031307;28;58942;-37
2022/07/17 00:30:24;;;;;;;;;2.25;1.00;;;;;26.51;37.45;101834.00;5031368;28;45455;-38
2022/07/17 00:32:50;;;;;;;;;2.75;1.25;;;;;26.48;38.02;101832.38;5025286;28;63469;-38
2022/07/17 00:35:15;;;;;;;;;1.25;1.00;;;;;26.50;37.91;101835.78;5030603;28;45604;-37
2022/07/17 00:37:42;;;;;;;;;0.00;0.00;;;;;26.49;37.97;101831.44;5037496;28;46927;-37
2022/07/17 00:40:10;;;;;;;;;2.00;2.00;;;;;26.51;37.59;101837.53;5024824;28;45377;-37
2022/07/17 00:42:35;;;;;;;;;2.25;0.75;;;;;26.50;37.99;101832.25;5032049;28;45435;-38
2022/07/17 00:45:01;;;;;;;;;0.25;0.25;;;;;26.51;37.64;101829.47;5028511;28;45449;-37
2022/07/17 00:47:26;;;;;;;;;0.00;0.00;;;;;26.50;37.41;101827.75;5030012;28;62598;-37
2022/07/17 00:49:51;;;;;;;;;0.00;0.00;;;;;26.51;37.56;101836.69;5033127;28;45544;-37
2022/07/17 00:52:18;;;;;;;;;2.00;0.50;;;;;26.50;37.66;101830.44;5033786;28;45257;-38
2022/07/17 00:54:45;;;;;;;;;1.50;1.50;;;;;26.51;37.78;101834.00;5028935;28;47303;-38
2022/07/17 00:57:13;;;;;;;;;0.75;0.50;;;;;26.51;37.80;101834.00;5030995;28;46329;-37
2022/07/17 00:59:39;;;;;;;;;2.00;1.00;;;;;26.51;37.38;101839.38;5029867;28;45156;-38
2022/07/17 01:02:06;;;;;;;;;2.00;0.00;;;;;26.50;37.57;101837.63;5029791;28;45401;-37
2022/07/17 01:04:32;;;;;;;;;1.00;1.00;;;;;26.50;37.95;101838.47;5028759;28;45589;-37
2022/07/17 01:06:59;;;;;;;;;1.00;1.00;;;;;26.50;37.86;101840.31;5036348;28;47688;-37
2022/07/17 01:09:24;;;;;;;;;0.75;0.00;;;;;26.50;37.36;101837.63;5027410;28;45473;-37
2022/07/17 01:11:50;;;;;;;;;1.75;1.75;;;;;26.50;38.00;101838.47;5035027;28;45274;-37
2022/07/17 01:14:16;;;;;;;;;2.00;0.00;;;;;26.49;37.45;101834.09;5030655;28;71227;-37
2022/07/17 01:16:43;;;;;;;;;1.00;1.00;;;;;26.49;37.89;101844.84;5028767;28;46438;-37
2022/07/17 01:19:10;;;;;;;;;1.00;1.00;;;;;26.50;37.54;101845.69;5023757;28;47267;-37
2022/07/17 01:21:47;;;;;;;;;1.25;0.75;;;;;26.48;37.29;101837.75;5030390;28;45379;-38
2022/07/17 01:24:13;;;;;;;;;2.00;1.25;;;;;26.48;37.67;101836.91;5025109;28;45365;-38
2022/07/17 01:26:47;;;;;;;;;1.00;1.00;;;;;26.48;37.97;101832.38;5033499;28;46286;-37
2022/07/17 01:29:13;;;;;;;;;1.00;1.00;;;;;26.48;37.68;101834.22;5029448;28;45554;-37
2022/07/17 01:31:39;;;;;;;;;2.00;0.00;;;;;26.48;37.36;101834.22;5030368;28;45397;-38
2022/07/17 01:34:07;;;;;;;;;1.00;1.00;;;;;26.48;37.58;101839.59;5028518;28;45337;-37
2022/07/17 01:36:33;;;;;;;;;0.00;0.00;;;;;26.47;37.75;101838.75;5025281;28;46188;-37
2022/07/17 01:38:58;;;;;;;;;0.25;0.25;;;;;26.46;37.59;101837.03;5027939;28;45216;-37
2022/07/17 01:41:24;;;;;;;;;0.75;0.00;;;;;26.45;37.60;101834.44;5028915;28;45445;-37
2022/07/17 01:43:49;;;;;;;;;0.25;0.25;;;;;26.46;37.65;101834.34;5035238;28;45172;-37
2022/07/17 01:46:15;;;;;;;;;0.75;0.75;;;;;26.46;37.96;101830.81;5034010;28;74218;-38
2022/07/17 01:48:40;;;;;;;;;1.75;1.75;;;;;26.46;37.79;101830.81;5031973;28;71903;-37
2022/07/17 01:51:06;;;;;;;;;1.00;1.00;;;;;26.45;37.67;101829.94;5025802;28;68307;-37
2022/07/17 01:53:31;;;;;;;;;1.50;1.25;;;;;26.45;37.38;101815.66;5028133;28;45519;-38
2022/07/17 01:55:56;;;;;;;;;0.00;0.00;;;;;26.43;37.38;101821.16;5031716;28;67490;-38
2022/07/17 01:58:22;;;;;;;;;1.00;1.00;;;;;26.44;37.23;101814.81;5030224;28;68821;-37
2022/07/17 02:00:47;;;;;;;;;0.25;0.25;;;;;26.44;37.51;101817.50;5029425;28;47716;-37
2022/07/17 02:03:12;;;;;;;;;1.00;0.50;;;;;26.43;37.18;101812.25;5026298;28;45563;-37
2022/07/17 02:05:38;;;;;;;;;0.75;0.75;;;;;26.43;37.67;101812.25;5044990;28;47773;-37
2022/07/17 02:08:03;;;;;;;;;1.75;1.00;;;;;26.43;37.68;101815.78;5025102;28;67993;-37
2022/07/17 02:10:29;;;;;;;;;1.00;1.00;;;;;26.43;37.62;101814.94;5035014;28;45420;-38
2022/07/17 02:12:54;;;;;;;;;1.25;1.00;;;;;26.40;37.58;101810.66;5031241;28;45332;-37
2022/07/17 02:15:19;;;;;;;;;1.75;1.00;;;;;26.37;37.60;101800.16;5026082;28;71710;-38
2022/07/17 02:17:44;;;;;;;;;0.25;0.25;;;;;26.40;37.51;101812.47;5027060;28;58805;-37
2022/07/17 02:20:11;;;;;;;;;1.50;1.00;;;;;26.40;37.19;101812.47;5030097;28;59238;-38
2022/07/17 02:22:37;;;;;;;;;0.00;0.00;;;;;26.38;37.77;101815.28;5030914;28;45351;-38
2022/07/17 02:25:03;;;;;;;;;0.50;0.00;;;;;26.37;37.71;101810.06;5024589;28;45475;-38
2022/07/17 02:27:31;;;;;;;;;0.25;0.25;;;;;26.38;37.54;101811.75;5031250;28;45392;-38
2022/07/17 02:29:56;;;;;;;;;0.25;0.25;;;;;26.37;37.60;101810.91;5027716;28;45695;-38
2022/07/17 02:32:21;;;;;;;;;1.00;1.00;;;;;26.36;37.60;101809.16;5032593;28;69231;-38
2022/07/17 02:34:47;;;;;;;;;1.00;1.00;;;;;26.37;37.44;101816.25;5025130;28;75549;-38
2022/07/17 02:37:12;;;;;;;;;0.00;0.00;;;;;26.36;37.35;101806.47;5034399;28;45388;-38
2022/07/17 02:39:51;;;;;;;;;0.00;0.00;;;;;26.35;37.44;101807.47;5032284;28;65626;-38
2022/07/17 02:42:20;;;;;;;;;0.75;0.50;;;;;26.32;37.69;101803.19;5051802;28;45253;-38
2022/07/17 02:44:46;;;;;;;;;0.75;0.75;;;;;26.36;37.71;101805.63;5032405;28;46311;-38
2022/07/17 02:47:12;;;;;;;;;0.25;0.25;;;;;26.34;37.39;101798.53;5036011;28;45470;-38
2022/07/17 02:49:37;;;;;;;;;1.00;1.00;;;;;26.32;37.38;101796.97;5037171;28;45344;-38
2022/07/17 02:52:03;;;;;;;;;0.50;0.00;;;;;26.34;37.79;101797.69;5028857;28;60108;-38
2022/07/17 02:54:28;;;;;;;;;0.50;0.00;;;;;26.32;37.68;101802.34;5027598;28;46089;-38
2022/07/17 02:56:53;;;;;;;;;1.00;1.00;;;;;26.31;37.45;101798.81;5036052;28;69754;-38
2022/07/17 02:59:19;;;;;;;;;1.00;1.00;;;;;26.32;37.50;101796.97;5028704;28;46073;-38
2022/07/17 03:01:44;;;;;;;;;0.00;0.00;;;;;26.31;37.40;101801.50;5036654;28;71746;-46
2022/07/17 03:04:09;;;;;;;;;0.75;0.75;;;;;26.30;37.50;101794.41;5028157;28;45373;-38
2022/07/17 03:06:35;;;;;;;;;2.25;0.25;;;;;26.31;37.42;101803.28;5037280;28;45372;-38
2022/07/17 03:09:00;;;;;;;;;0.00;0.00;;;;;26.30;37.33;101794.41;5032273;28;68654;-38
2022/07/17 03:11:25;;;;;;;;;1.00;1.00;;;;;26.30;37.27;101788.19;5038224;28;45310;-39
2022/07/17 03:13:51;;;;;;;;;0.25;0.25;;;;;26.29;37.33;101795.41;5033780;28;65163;-37
2022/07/17 03:16:16;;;;;;;;;0.00;0.00;;;;;26.28;37.45;101796.34;5034547;28;45340;-38
2022/07/17 03:18:41;;;;;;;;;0.25;0.25;;;;;26.28;37.36;101795.50;5033809;28;45222;-38
2022/07/17 03:21:07;;;;;;;;;1.25;1.25;;;;;26.28;37.57;101796.34;5033496;28;45808;-38
2022/07/17 03:23:32;;;;;;;;;1.00;1.00;;;;;26.27;37.61;101799.16;5036085;28;67185;-38
2022/07/17 03:25:57;;;;;;;;;1.00;1.00;;;;;26.27;37.53;101802.69;5032173;28;45464;-38
2022/07/17 03:28:23;;;;;;;;;0.25;0.25;;;;;26.27;37.58;101802.69;5036582;28;62260;-38
2022/07/17 03:30:48;;;;;;;;;0.00;0.00;;;;;26.27;37.71;101799.16;5034958;28;62917;-38
2022/07/17 03:33:13;;;;;;;;;0.00;0.00;;;;;26.27;37.34;101804.53;5027824;28;75664;-38
2022/07/17 03:35:39;;;;;;;;;0.25;0.25;;;;;26.26;37.59;101808.16;5033006;28;53559;-38
2022/07/17 03:38:04;;;;;;;;;0.50;0.25;;;;;26.24;37.23;101805.63;5033210;28;53416;-38
2022/07/17 03:40:30;;;;;;;;;0.75;0.75;;;;;26.25;37.57;101819.88;5028107;28;65250;-38
2022/07/17 03:42:55;;;;;;;;;0.75;0.75;;;;;26.24;37.60;101824.41;5033258;28;46261;-39
2022/07/17 03:45:20;;;;;;;;;2.00;1.00;;;;;26.24;37.56;101818.16;5029067;28;66391;-38
2022/07/17 03:47:45;;;;;;;;;1.00;1.00;;;;;26.22;37.50;101820.97;5025486;28;65877;-38
2022/07/17 03:50:11;;;;;;;;;0.00;0.00;;;;;26.22;37.65;101817.44;5031071;28;66091;-38
2022/07/17 03:52:36;;;;;;;;;0.75;0.75;;;;;26.23;37.68;101821.84;5025200;28;45795;-38
2022/07/17 03:55:02;;;;;;;;;0.00;0.00;;;;;26.22;37.38;101825.47;5032477;28;45361;-38
2022/07/17 03:57:27;;;;;;;;;2.25;0.00;;;;;26.22;37.43;101820.97;5033650;28;45289;-38
2022/07/17 03:59:52;;;;;;;;;0.75;0.25;;;;;26.23;37.91;101829.88;5030779;28;67534;-38
2022/07/17 04:02:18;;;;;;;;;0.75;0.50;;;;;26.21;37.74;101827.31;5035889;28;46181;-37
2022/07/17 04:04:43;;;;;;;;;0.50;0.50;;;;;26.21;37.28;101824.63;5031547;28;45528;-38
2022/07/17 04:07:26;;;;;;;;;0.50;0.50;;;;;26.21;37.68;101823.78;5035360;28;45488;-38
2022/07/17 04:09:52;;;;;;;;;0.50;0.50;;;;;26.21;37.57;101818.41;5028450;28;45399;-38
2022/07/17 04:12:17;;;;;;;;;0.00;0.00;;;;;26.20;37.50;101812.16;5032955;28;45519;-38
2022/07/17 04:14:42;;;;;;;;;0.25;0.25;;;;;26.20;37.46;101806.81;5033585;28;67976;-37
2022/07/17 04:17:08;;;;;;;;;1.00;1.00;;;;;26.20;37.78;101809.50;5034566;28;53244;-38
2022/07/17 04:19:33;;;;;;;;;2.00;0.00;;;;;26.19;37.48;101814.97;5031049;28;70277;-37
2022/07/17 04:21:58;;;;;;;;;0.00;0.00;;;;;26.19;37.67;101820.34;5034770;28;66464;-38
2022/07/17 04:24:24;;;;;;;;;1.50;1.00;;;;;26.19;37.55;101820.34;5029837;28;45625;-37
2022/07/17 04:26:49;;;;;;;;;0.00;0.00;;;;;26.19;37.68;101829.25;5034702;28;63643;-37
2022/07/17 04:29:14;;;;;;;;;1.00;1.00;;;;;26.18;37.59;101840.09;5025567;28;68312;-37
2022/07/17 04:31:40;;;;;;;;;0.25;0.25;;;;;26.18;37.59;101848.16;5031531;28;62774;-36
2022/07/17 04:34:05;;;;;;;;;2.75;1.00;;;;;26.18;37.62;101845.47;5033176;28;69507;-37
2022/07/17 04:36:30;;;;;;;;;1.25;0.75;;;;;26.17;37.61;101854.47;5029812;28;58725;-37
2022/07/17 04:38:56;;;;;;;;;1.00;1.00;;;;;26.16;37.55;101848.28;5036740;28;64533;-36
2022/07/17 04:41:21;;;;;;;;;1.75;0.25;;;;;26.17;37.58;101851.81;5031265;28;69070;-37
2022/07/17 04:43:46;;;;;;;;;1.00;0.25;;;;;26.17;37.50;101859.84;5031109;28;72970;-37
2022/07/17 04:46:11;;;;;;;;;0.00;0.00;;;;;26.16;37.75;101856.31;5031231;28;60651;-37
2022/07/17 04:48:37;;;;;;;;;0.00;0.00;;;;;26.15;37.86;101859.97;5033682;28;45194;-37
2022/07/17 04:51:02;;;;;;;;;1.00;1.00;;;;;26.15;37.70;101868.00;5032697;28;70696;-37
2022/07/17 04:53:28;;;;;;;;;0.75;0.75;;;;;26.15;37.60;101873.38;5034880;28;45915;-37
2022/07/17 04:55:54;;;;;;;;;0.00;0.00;;;;;26.15;37.66;101873.38;5033827;28;45401;-37
2022/07/17 04:58:19;;;;;;;;;0.50;0.50;;;;;26.14;37.65;101877.91;5027733;28;64784;-38
2022/07/17 05:00:44;;;;;;;;;1.00;1.00;;;;;26.14;37.69;101874.38;5030165;28;46163;-38
2022/07/17 05:03:10;;;;;;;;;0.25;0.25;;;;;26.13;37.82;101878.88;5029847;28;57291;-38
2022/07/17 05:05:35;;;;;;;;;0.25;0.25;;;;;26.14;37.65;101885.09;5031818;28;46484;-38
2022/07/17 05:08:00;;;;;;;;;2.00;0.00;;;;;26.13;37.56;101873.53;5033359;28;45395;-38
2022/07/17 05:10:26;;;;;;;;;0.75;0.25;;;;;26.13;37.65;101872.63;5030448;28;59691;-38
2022/07/17 05:12:51;;;;;;;;;2.25;0.25;;;;;26.12;37.92;101881.69;5032147;28;45432;-38
2022/07/17 05:15:17;;;;;;;;;1.00;0.00;;;;;26.12;37.63;101882.53;5030798;28;66690;-38
2022/07/17 05:17:42;;;;;;;;;0.00;0.00;;;;;26.12;37.50;101879.00;5035944;28;45497;-38
2022/07/17 05:20:08;;;;;;;;;1.00;1.00;;;;;26.11;37.64;101877.28;5031314;28;61271;-38
2022/07/17 05:22:33;;;;;;;;;0.00;0.00;;;;;26.11;37.59;101882.63;5033571;28;45383;-37
2022/07/17 05:24:58;;;;;;;;;0.00;0.00;;;;;26.11;37.93;101886.16;5031456;28;65060;-37
2022/07/17 05:27:24;;;;;;;;;0.00;0.00;;;;;26.10;37.73;101879.09;5031013;28;69471;-37
2022/07/17 05:29:49;;;;;;;;;0.75;0.75;;;;;26.09;37.64;101882.75;5033759;28;46770;-37
2022/07/17 05:32:14;;;;;;;;;2.25;0.00;;;;;26.11;37.34;101888.00;5029487;28;45524;-37
2022/07/17 05:34:40;;;;;;;;;1.00;0.00;;;;;26.10;38.00;101888.97;5027951;28;66301;-37
2022/07/17 05:37:05;;;;;;;;;0.00;0.00;;;;;26.09;37.81;101882.75;5034461;28;75365;-37
2022/07/17 05:39:30;;;;;;;;;1.00;0.00;;;;;26.10;37.73;101886.28;5034274;28;45348;-37
2022/07/17 05:41:56;;;;;;;;;0.25;0.25;;;;;26.04;37.72;101874.19;5022809;28;45450;-37
2022/07/17 05:44:21;;;;;;;;;0.00;0.00;;;;;26.09;37.92;101884.59;5030383;28;62471;-38
2022/07/17 05:46:46;;;;;;;;;0.00;0.00;;;;;26.08;37.79;101886.41;5032913;28;67859;-38
2022/07/17 05:49:12;;;;;;;;;2.00;1.00;;;;;26.09;37.84;101882.75;5034247;28;65003;-37
2022/07/17 05:51:37;;;;;;;;;1.00;1.00;;;;;26.08;38.01;101883.75;5032222;28;71273;-37
2022/07/17 05:54:02;;;;;;;;;0.75;0.25;;;;;26.06;37.58;101885.66;5028052;28;45348;-37
2022/07/17 05:56:28;;;;;;;;;0.75;0.75;;;;;26.08;37.43;101891.78;5027056;28;45561;-37
2022/07/17 05:58:53;;;;;;;;;0.00;0.00;;;;;26.09;37.72;101888.13;5027400;28;46177;-37
2022/07/17 06:01:18;;;;;;;;;0.50;0.50;;;;;26.08;38.16;101886.41;5035026;28;45433;-37
2022/07/17 06:03:44;;;;;;;;;0.00;0.00;;;;;26.08;37.64;101890.91;5029957;28;45327;-37
2022/07/17 06:06:09;;;;;;;;;0.25;0.25;;;;;26.07;37.88;101890.06;5031438;28;66204;-37
2022/07/17 06:08:34;;;;;;;;;0.50;0.00;;;;;26.08;37.75;101893.59;5027712;28;45284;-37
2022/07/17 06:11:00;;;;;;;;;1.00;0.75;;;;;26.07;37.86;101894.56;5036304;28;45401;-38
2022/07/17 06:13:25;;;;;;;;;0.00;0.00;;;;;26.06;38.29;101893.69;5034047;28;58596;-37
2022/07/17 06:15:50;;;;;;;;;1.00;1.00;;;;;26.07;37.78;101890.06;4996301;28;53692;-37
2022/07/17 06:18:16;;;;;;;;;0.25;0.25;;;;;26.07;38.10;101889.22;5030247;28;45462;-37
2022/07/17 06:20:41;;;;;;;;;1.50;0.00;;;;;26.06;37.73;101893.69;5031632;28;45418;-36
2022/07/17 06:23:06;;;;;;;;;0.00;0.00;;;;;26.08;37.99;101898.97;5015754;28;54031;-37
2022/07/17 06:25:32;;;;;;;;;0.00;0.00;;;;;26.07;37.93;101895.44;5011133;28;45371;-37
2022/07/17 06:27:57;;;;;;;;;2.00;1.00;;;;;26.07;37.70;101902.63;5032108;28;60404;-37
2022/07/17 06:30:22;;;;;;;;;2.00;0.00;;;;;26.06;37.66;101896.38;5028687;28;66537;-37
2022/07/17 06:32:48;;;;;;;;;1.75;0.00;;;;;26.07;37.68;101886.53;5030996;28;59842;-37
2022/07/17 06:35:13;;;;;;;;;1.00;1.00;;;;;26.07;37.73;101884.69;5030669;28;45452;-37
2022/07/17 06:37:39;;;;;;;;;0.00;0.00;;;;;26.07;37.81;101887.38;5030594;28;49728;-37
2022/07/17 06:40:05;;;;;;;;;0.00;0.00;;;;;26.07;37.99;101891.91;5032315;28;45458;-37
2022/07/17 06:42:30;;;;;;;;;1.00;0.25;;;;;26.07;37.78;101889.22;5028508;28;45581;-37
2022/07/17 06:44:56;;;;;;;;;1.25;1.00;;;;;26.08;37.59;101888.22;5027426;28;69170;-37
2022/07/17 06:47:21;;;;;;;;;0.00;0.00;;;;;26.06;38.03;101882.97;5026995;28;74204;-37
2022/07/17 06:49:46;;;;;;;;;0.00;0.00;;;;;26.08;38.13;101893.59;5024840;28;61622;-37
2022/07/17 06:52:12;;;;;;;;;1.00;1.00;;;;;26.08;37.74;101885.53;5030936;28;59983;-39
2022/07/17 06:54:37;;;;;;;;;1.25;0.00;;;;;26.08;37.92;101885.53;5033722;28;46695;-37
2022/07/17 06:57:02;;;;;;;;;0.25;0.25;;;;;26.08;37.97;101874.81;5031315;28;63033;-37
2022/07/17 06:59:28;;;;;;;;;1.25;0.00;;;;;26.09;37.59;101873.84;5029218;28;71097;-37
2022/07/17 07:01:53;;;;;;;;;0.00;0.00;;;;;26.09;37.72;101877.38;5021927;28;60637;-37
2022/07/17 07:04:18;;;;;;;;;0.00;0.00;;;;;26.10;37.77;101880.91;5029612;28;67824;-37
2022/07/17 07:06:44;;;;;;;;;0.00;0.00;;;;;26.10;37.87;101878.22;5031680;28;74185;-37
2022/07/17 07:09:11;;;;;;;;;1.00;0.00;;;;;26.10;37.84;101879.09;5033422;28;63544;-37
2022/07/17 07:11:37;;;;;;;;;1.50;1.25;;;;;26.11;37.99;101883.47;5031680;28;45382;-37
2022/07/17 07:14:03;;;;;;;;;0.00;0.00;;;;;26.11;37.72;101883.47;5018668;28;45496;-37
2022/07/17 07:16:28;;;;;;;;;0.75;0.00;;;;;26.12;37.84;101887.03;5029340;28;71019;-37
2022/07/17 07:18:53;;;;;;;;;2.00;0.75;;;;;26.13;38.04;101886.94;5022688;28;64265;-37
2022/07/17 07:21:19;;;;;;;;;0.00;0.00;;;;;26.13;38.04;101894.09;5022467;28;65849;-38
2022/07/17 07:23:44;;;;;;;;;2.00;2.00;;;;;26.12;36.00;101884.38;5034373;28;47302;-37
2022/07/17 07:26:09;;;;;;;;;2.00;2.00;;;;;25.94;34.41;101894.59;5035523;28;71134;-36
2022/07/17 07:28:35;;;;;;;;;2.50;2.25;;;;;25.70;34.75;101892.72;5028882;28;70730;-37
2022/07/17 07:31:00;;;;;;;;;3.50;2.00;;;;;25.57;34.96;101883.88;5027854;28;47120;-37
2022/07/17 07:33:25;;;;;;;;;3.25;2.00;;;;;25.46;33.32;101894.50;5030309;28;66844;-36
2022/07/17 07:35:51;;;;;;;;;4.00;2.00;;;;;25.35;34.60;101887.25;5034418;28;73637;-37
2022/07/17 07:38:16;;;;;;;;;2.00;2.00;;;;;25.25;34.62;101883.50;5032244;28;68554;-37
2022/07/17 07:40:42;;;;;;;;;3.00;2.50;;;;;25.20;34.62;101884.66;5028005;28;45528;-37
2022/07/17 07:43:07;;;;;;;;;2.00;2.00;;;;;25.17;34.26;101887.53;5036770;28;62370;-36
2022/07/17 07:45:33;;;;;;;;;4.25;2.50;;;;;25.12;34.58;101883.47;5029506;28;46026;-37
2022/07/17 07:47:58;;;;;;;;;1.25;1.25;;;;;25.06;34.32;101883.94;5035093;28;45568;-36
2022/07/17 07:50:25;;;;;;;;;3.00;2.00;;;;;25.03;34.06;101879.63;5026047;28;57603;-36
2022/07/17 07:52:51;;;;;;;;;3.00;1.25;;;;;25.00;34.28;101874.47;5034199;28;45556;-36
2022/07/17 07:55:16;;;;;;;;;3.25;2.00;;;;;24.97;33.90;101880.91;5034610;28;46582;-36
2022/07/17 07:57:42;;;;;;;;;1.75;1.75;;;;;24.91;33.69;101875.13;5024313;28;73348;-36
2022/07/17 08:00:09;;;;;;;;;3.25;3.00;;;;;24.86;33.92;101877.25;5027091;28;48596;-37
2022/07/17 08:02:34;;;;;;;;;3.00;3.00;;;;;24.88;34.35;101880.69;5033635;28;45342;-37
2022/07/17 08:05:00;;;;;;;;;4.00;3.00;;;;;24.88;34.21;101881.56;5032405;28;46077;-37
2022/07/17 08:07:26;;;;;;;;;2.25;2.00;;;;;24.90;34.03;101884.13;5031439;28;45386;-37
2022/07/17 08:09:52;;;;;;;;;2.25;2.25;;;;;24.87;33.62;101879.84;5032099;28;45470;-36
2022/07/17 08:12:18;;;;;;;;;2.00;2.00;;;;;24.87;33.74;101873.63;5038755;28;45283;-37
2022/07/17 08:14:43;;;;;;;;;2.50;2.50;;;;;24.87;33.77;101877.16;5024408;28;45344;-36
2022/07/17 08:17:08;;;;;;;;;4.00;3.00;;;;;24.89;33.63;101882.41;5032568;28;46980;-36
2022/07/17 08:19:34;;;;;;;;;3.75;2.25;;;;;24.87;33.73;101881.66;5044762;28;46597;-38
2022/07/17 08:22:00;;;;;;;;;3.00;3.00;;;;;24.88;33.93;101881.56;5030099;28;45375;-37
2022/07/17 08:24:25;;;;;;;;;4.25;3.00;;;;;24.91;34.12;101877.81;5015174;28;48207;-36
2022/07/17 08:26:50;;;;;;;;;2.00;2.00;;;;;24.96;34.16;101878.34;5038167;28;72314;-37
2022/07/17 08:29:16;;;;;;;;;2.00;2.00;;;;;24.99;33.62;101884.34;5036961;28;58334;-36
2022/07/17 08:31:41;;;;;;;;;1.00;0.75;;;;;25.02;33.74;101885.97;5031956;28;68682;-36
2022/07/17 08:34:07;;;;;;;;;4.00;3.25;;;;;25.07;33.95;101888.31;5027075;28;46065;-36
2022/07/17 08:36:32;;;;;;;;;5.75;1.25;;;;;25.09;33.58;101884.56;5026563;28;45431;-36
2022/07/17 08:38:58;;;;;;;;;3.50;3.50;;;;;25.13;33.53;101880.69;5033407;28;65656;-38
2022/07/17 08:41:24;;;;;;;;;4.75;3.00;;;;;25.19;33.54;101882.06;5027690;28;45598;-37
2022/07/17 08:43:50;;;;;;;;;2.75;2.50;;;;;25.24;33.61;101893.34;5027422;28;46356;-37
2022/07/17 08:46:16;;;;;;;;;3.50;3.00;;;;;25.28;33.42;101889.50;5032220;28;45509;-36
2022/07/17 08:48:42;;;;;;;;;4.50;2.25;;;;;25.31;33.72;101881.25;5029466;28;45493;-37
2022/07/17 08:51:09;;;;;;;;;3.00;2.25;;;;;25.38;33.28;101877.16;5018482;28;45679;-36
2022/07/17 08:53:34;;;;;;;;;3.25;2.00;;;;;25.42;33.42;101880.47;5038081;28;47531;-36
2022/07/17 08:56:00;;;;;;;;;1.25;1.25;;;;;25.45;33.22;101866.00;5031882;28;45499;-37
2022/07/17 08:58:25;;;;;;;;;2.50;2.50;;;;;25.47;33.38;101866.75;5032048;28;45363;-36
2022/07/17 09:00:51;;;;;;;;;3.75;3.75;;;;;25.52;33.19;101872.63;5011756;28;45360;-37
2022/07/17 09:03:17;;;;;;;;;4.00;3.00;;;;;25.56;33.27;101880.31;5030565;28;45399;-36
2022/07/17 09:05:43;;;;;;;;;1.75;1.75;;;;;25.60;32.92;101874.75;5042938;28;45834;-37
2022/07/17 09:08:16;;;;;;;;;4.00;2.00;;;;;25.64;32.97;101878.91;5037622;28;45526;-36
2022/07/17 09:10:43;;;;;;;;;3.75;2.50;;;;;25.68;32.80;101880.41;5035874;28;45476;-37
2022/07/17 09:13:22;;;;;;;;;2.25;2.25;;;;;25.72;33.14;101871.19;5026169;28;45547;-36
2022/07/17 09:15:50;;;;;;;;;1.75;1.75;;;;;25.75;33.13;101874.50;5022411;28;45842;-37
2022/07/17 09:18:17;;;;;;;;;3.25;3.25;;;;;25.80;32.84;101878.66;5029742;28;45419;-36
2022/07/17 09:20:47;;;;;;;;;2.25;2.25;;;;;25.83;32.74;101868.56;5028366;28;45565;-37
2022/07/17 09:23:12;;;;;;;;;2.00;2.00;;;;;25.85;32.79;101871.13;5030465;28;45676;-36
2022/07/17 09:25:43;;;;;;;;;2.25;2.00;;;;;25.88;32.91;101876.28;5011012;28;45445;-36
2022/07/17 09:28:10;;;;;;;;;3.00;2.00;;;;;25.91;32.81;101874.22;5036833;28;45530;-37
2022/07/17 09:30:37;;;;;;;;;3.75;3.00;;;;;25.92;32.74;101881.31;5030107;28;45300;-38
2022/07/17 09:33:07;;;;;;;;;1.25;1.25;;;;;25.97;32.69;101882.81;5027110;28;45309;-36
2022/07/17 09:35:32;;;;;;;;;1.25;1.25;;;;;25.99;33.16;101880.88;5029666;28;45764;-37
2022/07/17 09:37:57;;;;;;;;;5.00;1.25;;;;;26.02;32.67;101881.50;5036791;28;67296;-37
2022/07/17 09:43:08;;;;;;;;;3.50;2.00;;;;;26.09;32.97;101874.69;5019175;28;45331;-37
2022/07/17 09:45:34;;;;;;;;;3.00;3.00;;;;;26.12;33.06;101877.16;5026766;28;45515;-37
2022/07/17 09:48:00;;;;;;;;;3.00;1.25;;;;;26.16;33.16;101874.25;5033445;28;45463;-37
2022/07/17 09:50:27;;;;;;;;;4.25;2.75;;;;;26.19;32.93;101871.31;5027103;28;45510;-36
2022/07/17 09:52:55;;;;;;;;;2.25;2.25;;;;;26.21;33.02;101869.41;5032702;28;46032;-37
2022/07/17 09:55:20;;;;;;;;;1.00;1.00;;;;;26.25;33.17;101870.88;5013849;28;45758;-37
2022/07/17 09:57:47;;;;;;;;;2.50;2.50;;;;;26.28;32.91;101868.81;5036557;28;45236;-37
2022/07/17 10:00:13;;;;;;;;;1.75;1.75;;;;;26.34;32.53;101879.06;5028343;28;45430;-37
2022/07/17 10:02:45;;;;;;;;;2.00;2.00;;;;;26.42;32.85;101875.81;5031614;28;45437;-37
2022/07/17 10:05:12;;;;;;;;;2.50;2.25;;;;;26.47;32.83;101873.63;5024674;28;45689;-36
2022/07/17 10:07:45;;;;;;;;;2.00;2.00;;;;;26.52;32.69;101871.47;5037245;28;45415;-36
2022/07/17 10:10:12;;;;;;;;;2.25;1.25;;;;;26.58;32.88;101870.13;5029849;28;45442;-37
2022/07/17 10:12:38;;;;;;;;;2.00;1.00;;;;;26.63;31.93;101875.16;5033876;28;46208;-36
2022/07/17 10:15:05;;;;;;;;;0.25;0.25;;;;;26.62;32.03;101860.03;5034299;28;45438;-35
2022/07/17 10:17:30;;;;;;;;;2.25;2.00;;;;;26.60;32.47;101867.34;5028614;28;45780;-36
2022/07/17 10:19:56;;;;;;;;;1.75;1.75;;;;;26.58;32.06;101878.19;5024505;28;73544;-36
2022/07/17 10:22:22;;;;;;;;;3.00;1.50;;;;;26.56;32.65;101873.88;5027389;28;45981;-36
2022/07/17 10:24:49;;;;;;;;;2.00;2.00;;;;;26.55;32.54;101875.72;5027535;28;45493;-36
2022/07/17 10:27:29;;;;;;;;;5.25;3.50;;;;;26.54;32.71;101874.00;5028156;28;45409;-36
2022/07/17 10:30:09;;;;;;;;;2.25;1.25;;;;;26.52;32.81;101881.31;5030005;28;45354;-36
2022/07/17 10:32:35;;;;;;;;;4.50;2.25;;;;;26.53;33.23;101881.22;5029458;28;45308;-36
2022/07/17 10:35:09;;;;;;;;;2.25;1.00;;;;;26.53;33.08;101881.22;5028902;28;45961;-37
2022/07/17 10:37:34;;;;;;;;;2.00;1.75;;;;;26.53;33.37;101875.84;5035703;28;45736;-37
2022/07/17 10:40:18;;;;;;;;;2.00;2.00;;;;;26.56;33.32;101884.63;5030755;28;45391;-36
2022/07/17 10:43:00;;;;;;;;;3.00;2.00;;;;;26.58;34.10;101888.03;5032901;28;46399;-36
2022/07/17 10:45:39;;;;;;;;;1.25;1.00;;;;;26.60;34.60;101883.44;5028858;28;45608;-36
2022/07/17 10:48:08;;;;;;;;;2.00;2.00;;;;;26.61;34.65;101883.31;5029290;28;45462;-35
2022/07/17 10:50:36;;;;;;;;;5.25;2.75;;;;;26.66;34.75;101875.78;5032006;28;45627;-36
2022/07/17 10:53:07;;;;;;;;;3.00;3.00;;;;;26.69;35.12;101878.22;5035088;28;46286;-35
2022/07/17 10:55:33;;;;;;;;;4.00;2.75;;;;;26.70;35.57;101873.72;5032651;28;45693;-35
2022/07/17 10:57:59;;;;;;;;;4.25;4.00;;;;;26.65;34.66;101883.97;5033563;28;45513;-35
2022/07/17 11:00:25;;;;;;;;;5.00;5.00;;;;;26.57;34.91;101876.47;5040916;28;45491;-35
2022/07/17 11:02:50;;;;;;;;;13.25;11.50;;;;;26.52;35.80;101876.84;5031838;28;46083;-35
2022/07/17 11:05:17;;;;;;;;;76.50;67.25;;;;;26.50;35.81;101880.59;5030822;28;45521;-36
2022/07/17 11:07:56;;;;;;;;;156.25;129.00;;;;;26.47;35.28;101870.97;5034916;28;45411;-36
2022/07/17 11:10:25;;;;;;;;;103.00;88.75;;;;;26.43;34.83;101869.47;5031852;28;45526;-36
2022/07/17 11:12:50;;;;;;;;;80.50;70.75;;;;;26.37;34.92;101869.09;5036863;28;46354;-36
2022/07/17 11:15:15;;;;;;;;;69.25;52.50;;;;;26.32;34.14;101872.13;5031469;28;63978;-35
2022/07/17 11:17:46;;;;;;;;;68.50;51.50;;;;;26.30;35.26;101868.69;5026318;28;66176;-36
2022/07/17 11:20:12;;;;;;;;;57.25;45.00;;;;;26.26;34.85;101868.06;5028187;28;45408;-36
2022/07/17 11:22:37;;;;;;;;;46.75;38.00;;;;;26.11;34.81;101871.91;5026886;28;45459;-36